sensor_id;sensor_type;location;lat;lon;timestamp;P1;durP1;ratioP1;P2;durP2;ratioP2
56469;SDS011;42374;51.464;-2.590;2022-08-21T00:02:17;12.05;;;4.07;;
56469;SDS011;42374;51.464;-2.590;2022-08-21T00:04:44;10.65;;;2.47;;
56469;SDS011;42374;51.464;-2.590;2022-08-21T00:07:10;17.40;;;4.13;;
56469;SDS011;42374;51.464;-2.590;2022-08-21T00:09:36;11.60;;;3.63;;
56469;SDS011;42374;51.464;-2.590;2022-08-21T00:12:02;16.77;;;1.83;;
56469;SDS011;42374;51.464;-2.590;2022-08-21T00:14:29;8.50;;;2.22;;
56469;SDS011;42374;51.464;-2.590;2022-08-21T00:16:55;10.60;;;2.45;;
56469;SDS011;42374;51.464;-2.590;2022-08-21T00:19:21;19.90;;;5.63;;
56469;SDS011;42374;51.464;-2.590;2022-08-21T00:21:50;10.43;;;2.88;;
56469;SDS011;42374;51.464;-2.590;2022-08-21T00:24:16;14.45;;;3.45;;
56469;SDS011;42374;51.464;-2.590;2022-08-21T00:26:42;11.60;;;3.53;;
56469;SDS011;42374;51.464;-2.590;2022-08-21T00:29:08;25.17;;;10.82;;
56469;SDS011;42374;51.464;-2.590;2022-08-21T00:31:35;14.15;;;2.72;;
56469;SDS011;42374;51.464;-2.590;2022-08-21T00:34:01;9.23;;;2.78;;
56469;SDS011;42374;51.464;-2.590;2022-08-21T00:36:28;11.45;;;4.10;;
56469;SDS011;42374;51.464;-2.590;2022-08-21T00:38:54;14.20;;;2.10;;
56469;SDS011;42374;51.464;-2.590;2022-08-21T00:41:20;19.45;;;4.10;;
56469;SDS011;42374;51.464;-2.590;2022-08-21T00:43:48;16.75;;;3.40;;
56469;SDS011;42374;51.464;-2.590;2022-08-21T00:46:14;10.85;;;2.80;;
56469;SDS011;42374;51.464;-2.590;2022-08-21T00:48:41;11.63;;;1.63;;
56469;SDS011;42374;51.464;-2.590;2022-08-21T00:51:08;13.25;;;3.92;;
56469;SDS011;42374;51.464;-2.590;2022-08-21T00:53:36;11.73;;;3.28;;
56469;SDS011;42374;51.464;-2.590;2022-08-21T00:56:03;20.60;;;5.15;;
56469;SDS011;42374;51.464;-2.590;2022-08-21T00:58:30;19.02;;;6.53;;
56469;SDS011;42374;51.464;-2.590;2022-08-21T01:00:57;14.90;;;4.57;;
56469;SDS011;42374;51.464;-2.590;2022-08-21T01:03:25;17.88;;;3.13;;
56469;SDS011;42374;51.464;-2.590;2022-08-21T01:05:52;13.68;;;2.15;;
56469;SDS011;42374;51.464;-2.590;2022-08-21T01:08:19;18.77;;;3.05;;
56469;SDS011;42374;51.464;-2.590;2022-08-21T01:10:45;12.60;;;3.63;;
56469;SDS011;42374;51.464;-2.590;2022-08-21T01:13:13;12.23;;;2.75;;
56469;SDS011;42374;51.464;-2.590;2022-08-21T01:15:42;11.88;;;1.92;;
56469;SDS011;42374;51.464;-2.590;2022-08-21T01:18:09;17.48;;;3.88;;
56469;SDS011;42374;51.464;-2.590;2022-08-21T01:20:36;7.70;;;1.90;;
56469;SDS011;42374;51.464;-2.590;2022-08-21T01:23:03;9.48;;;2.22;;
56469;SDS011;42374;51.464;-2.590;2022-08-21T01:25:30;9.80;;;1.90;;
56469;SDS011;42374;51.464;-2.590;2022-08-21T01:27:56;14.90;;;3.30;;
56469;SDS011;42374;51.464;-2.590;2022-08-21T01:30:25;19.38;;;3.53;;
56469;SDS011;42374;51.464;-2.590;2022-08-21T01:32:51;18.52;;;5.90;;
56469;SDS011;42374;51.464;-2.590;2022-08-21T01:35:18;21.33;;;8.38;;
56469;SDS011;42374;51.464;-2.590;2022-08-21T01:37:45;17.67;;;5.75;;
56469;SDS011;42374;51.464;-2.590;2022-08-21T01:40:13;20.70;;;5.50;;
56469;SDS011;42374;51.464;-2.590;2022-08-21T01:42:41;16.55;;;5.90;;
56469;SDS011;42374;51.464;-2.590;2022-08-21T01:45:07;16.08;;;4.97;;
56469;SDS011;42374;51.464;-2.590;2022-08-21T01:47:34;25.27;;;8.40;;
56469;SDS011;42374;51.464;-2.590;2022-08-21T01:50:00;12.88;;;2.42;;
56469;SDS011;42374;51.464;-2.590;2022-08-21T01:52:26;13.15;;;3.55;;
56469;SDS011;42374;51.464;-2.590;2022-08-21T01:54:52;19.27;;;3.20;;
56469;SDS011;42374;51.464;-2.590;2022-08-21T01:57:19;13.23;;;2.30;;
56469;SDS011;42374;51.464;-2.590;2022-08-21T01:59:45;14.10;;;3.40;;
56469;SDS011;42374;51.464;-2.590;2022-08-21T02:02:11;21.02;;;5.60;;
56469;SDS011;42374;51.464;-2.590;2022-08-21T02:04:37;25.75;;;11.75;;
56469;SDS011;42374;51.464;-2.590;2022-08-21T02:07:03;22.30;;;3.55;;
56469;SDS011;42374;51.464;-2.590;2022-08-21T02:09:29;14.82;;;3.83;;
56469;SDS011;42374;51.464;-2.590;2022-08-21T02:11:56;17.42;;;3.40;;
56469;SDS011;42374;51.464;-2.590;2022-08-21T02:14:22;21.08;;;5.35;;
56469;SDS011;42374;51.464;-2.590;2022-08-21T02:16:48;19.85;;;3.65;;
56469;SDS011;42374;51.464;-2.590;2022-08-21T02:19:14;19.63;;;6.60;;
56469;SDS011;42374;51.464;-2.590;2022-08-21T02:21:41;18.02;;;4.40;;
56469;SDS011;42374;51.464;-2.590;2022-08-21T02:24:07;17.20;;;2.92;;
56469;SDS011;42374;51.464;-2.590;2022-08-21T02:26:33;19.48;;;2.55;;
56469;SDS011;42374;51.464;-2.590;2022-08-21T02:28:59;11.75;;;2.30;;
56469;SDS011;42374;51.464;-2.590;2022-08-21T02:31:26;20.17;;;3.15;;
56469;SDS011;42374;51.464;-2.590;2022-08-21T02:33:52;12.35;;;3.08;;
56469;SDS011;42374;51.464;-2.590;2022-08-21T02:36:18;15.15;;;2.78;;
56469;SDS011;42374;51.464;-2.590;2022-08-21T02:38:44;16.23;;;2.78;;
56469;SDS011;42374;51.464;-2.590;2022-08-21T02:41:12;10.70;;;2.03;;
56469;SDS011;42374;51.464;-2.590;2022-08-21T02:43:38;13.00;;;1.92;;
56469;SDS011;42374;51.464;-2.590;2022-08-21T02:46:05;16.58;;;1.88;;
56469;SDS011;42374;51.464;-2.590;2022-08-21T02:48:32;19.20;;;7.57;;
56469;SDS011;42374;51.464;-2.590;2022-08-21T02:51:02;9.02;;;2.15;;
56469;SDS011;42374;51.464;-2.590;2022-08-21T02:53:29;9.68;;;2.03;;
56469;SDS011;42374;51.464;-2.590;2022-08-21T02:55:56;9.38;;;2.47;;
56469;SDS011;42374;51.464;-2.590;2022-08-21T02:58:27;15.77;;;2.28;;
56469;SDS011;42374;51.464;-2.590;2022-08-21T03:00:53;8.45;;;2.05;;
56469;SDS011;42374;51.464;-2.590;2022-08-21T03:03:19;12.30;;;2.92;;
56469;SDS011;42374;51.464;-2.590;2022-08-21T03:05:46;19.75;;;5.40;;
56469;SDS011;42374;51.464;-2.590;2022-08-21T03:08:13;10.13;;;2.13;;
56469;SDS011;42374;51.464;-2.590;2022-08-21T03:10:41;18.58;;;5.45;;
56469;SDS011;42374;51.464;-2.590;2022-08-21T03:13:08;10.10;;;2.30;;
56469;SDS011;42374;51.464;-2.590;2022-08-21T03:15:34;10.68;;;2.13;;
56469;SDS011;42374;51.464;-2.590;2022-08-21T03:18:00;10.48;;;1.80;;
56469;SDS011;42374;51.464;-2.590;2022-08-21T03:20:27;15.40;;;2.72;;
56469;SDS011;42374;51.464;-2.590;2022-08-21T03:22:54;13.90;;;2.15;;
56469;SDS011;42374;51.464;-2.590;2022-08-21T03:25:22;12.50;;;2.65;;
56469;SDS011;42374;51.464;-2.590;2022-08-21T03:27:48;9.85;;;1.60;;
56469;SDS011;42374;51.464;-2.590;2022-08-21T03:30:15;14.95;;;2.80;;
56469;SDS011;42374;51.464;-2.590;2022-08-21T03:32:41;12.77;;;1.38;;
56469;SDS011;42374;51.464;-2.590;2022-08-21T03:35:08;8.15;;;1.75;;
56469;SDS011;42374;51.464;-2.590;2022-08-21T03:37:34;13.15;;;2.80;;
56469;SDS011;42374;51.464;-2.590;2022-08-21T03:40:01;11.25;;;2.75;;
56469;SDS011;42374;51.464;-2.590;2022-08-21T03:42:27;12.45;;;3.08;;
56469;SDS011;42374;51.464;-2.590;2022-08-21T03:44:53;23.23;;;8.57;;
56469;SDS011;42374;51.464;-2.590;2022-08-21T03:47:20;18.60;;;3.28;;
56469;SDS011;42374;51.464;-2.590;2022-08-21T03:49:47;27.80;;;5.47;;
56469;SDS011;42374;51.464;-2.590;2022-08-21T03:52:13;15.85;;;2.80;;
56469;SDS011;42374;51.464;-2.590;2022-08-21T03:54:40;11.45;;;2.22;;
56469;SDS011;42374;51.464;-2.590;2022-08-21T03:57:06;10.07;;;2.17;;
56469;SDS011;42374;51.464;-2.590;2022-08-21T03:59:33;10.55;;;1.75;;
56469;SDS011;42374;51.464;-2.590;2022-08-21T04:02:00;12.23;;;1.75;;
56469;SDS011;42374;51.464;-2.590;2022-08-21T04:04:27;11.13;;;1.77;;
56469;SDS011;42374;51.464;-2.590;2022-08-21T04:06:54;13.30;;;2.63;;
56469;SDS011;42374;51.464;-2.590;2022-08-21T04:09:20;13.35;;;3.85;;
56469;SDS011;42374;51.464;-2.590;2022-08-21T04:11:46;19.00;;;2.30;;
56469;SDS011;42374;51.464;-2.590;2022-08-21T04:14:13;14.07;;;2.28;;
56469;SDS011;42374;51.464;-2.590;2022-08-21T04:16:39;16.13;;;5.90;;
56469;SDS011;42374;51.464;-2.590;2022-08-21T04:19:06;12.82;;;2.17;;
56469;SDS011;42374;51.464;-2.590;2022-08-21T04:21:32;12.35;;;2.28;;
56469;SDS011;42374;51.464;-2.590;2022-08-21T04:23:58;11.20;;;2.13;;
56469;SDS011;42374;51.464;-2.590;2022-08-21T04:26:25;7.15;;;1.90;;
56469;SDS011;42374;51.464;-2.590;2022-08-21T04:28:51;14.35;;;2.58;;
56469;SDS011;42374;51.464;-2.590;2022-08-21T04:31:17;11.73;;;2.10;;
56469;SDS011;42374;51.464;-2.590;2022-08-21T04:33:43;12.75;;;2.50;;
56469;SDS011;42374;51.464;-2.590;2022-08-21T04:36:10;15.73;;;2.80;;
56469;SDS011;42374;51.464;-2.590;2022-08-21T04:38:36;8.65;;;2.10;;
56469;SDS011;42374;51.464;-2.590;2022-08-21T04:41:03;12.43;;;3.67;;
56469;SDS011;42374;51.464;-2.590;2022-08-21T04:43:31;18.90;;;5.35;;
56469;SDS011;42374;51.464;-2.590;2022-08-21T04:45:57;18.48;;;9.13;;
56469;SDS011;42374;51.464;-2.590;2022-08-21T04:48:25;16.55;;;3.75;;
56469;SDS011;42374;51.464;-2.590;2022-08-21T04:51:00;13.93;;;2.65;;
56469;SDS011;42374;51.464;-2.590;2022-08-21T04:53:32;12.15;;;3.25;;
56469;SDS011;42374;51.464;-2.590;2022-08-21T04:56:04;14.23;;;2.35;;
56469;SDS011;42374;51.464;-2.590;2022-08-21T04:58:33;11.48;;;4.13;;
56469;SDS011;42374;51.464;-2.590;2022-08-21T05:00:59;11.15;;;4.07;;
56469;SDS011;42374;51.464;-2.590;2022-08-21T05:03:26;16.45;;;4.32;;
56469;SDS011;42374;51.464;-2.590;2022-08-21T05:05:52;12.48;;;2.55;;
56469;SDS011;42374;51.464;-2.590;2022-08-21T05:08:19;9.45;;;2.53;;
56469;SDS011;42374;51.464;-2.590;2022-08-21T05:10:46;6.50;;;1.52;;
56469;SDS011;42374;51.464;-2.590;2022-08-21T05:13:12;14.73;;;3.83;;
56469;SDS011;42374;51.464;-2.590;2022-08-21T05:15:39;12.63;;;3.28;;
56469;SDS011;42374;51.464;-2.590;2022-08-21T05:18:05;20.80;;;10.52;;
56469;SDS011;42374;51.464;-2.590;2022-08-21T05:20:32;17.20;;;4.50;;
56469;SDS011;42374;51.464;-2.590;2022-08-21T05:22:59;13.45;;;4.40;;
56469;SDS011;42374;51.464;-2.590;2022-08-21T05:25:25;14.88;;;4.47;;
56469;SDS011;42374;51.464;-2.590;2022-08-21T05:27:51;15.50;;;5.80;;
56469;SDS011;42374;51.464;-2.590;2022-08-21T05:30:19;11.80;;;2.70;;
56469;SDS011;42374;51.464;-2.590;2022-08-21T05:32:45;11.90;;;3.47;;
56469;SDS011;42374;51.464;-2.590;2022-08-21T05:35:11;18.00;;;3.17;;
56469;SDS011;42374;51.464;-2.590;2022-08-21T05:37:37;9.65;;;2.70;;
56469;SDS011;42374;51.464;-2.590;2022-08-21T05:40:03;13.15;;;3.40;;
56469;SDS011;42374;51.464;-2.590;2022-08-21T05:42:30;7.53;;;1.52;;
56469;SDS011;42374;51.464;-2.590;2022-08-21T05:44:56;8.57;;;2.83;;
56469;SDS011;42374;51.464;-2.590;2022-08-21T05:47:22;12.77;;;1.73;;
56469;SDS011;42374;51.464;-2.590;2022-08-21T05:49:49;12.30;;;2.90;;
56469;SDS011;42374;51.464;-2.590;2022-08-21T05:52:18;8.40;;;2.60;;
56469;SDS011;42374;51.464;-2.590;2022-08-21T05:54:45;10.25;;;1.55;;
56469;SDS011;42374;51.464;-2.590;2022-08-21T05:57:11;9.90;;;1.92;;
56469;SDS011;42374;51.464;-2.590;2022-08-21T05:59:37;6.95;;;1.60;;
56469;SDS011;42374;51.464;-2.590;2022-08-21T06:02:03;13.68;;;1.92;;
56469;SDS011;42374;51.464;-2.590;2022-08-21T06:04:29;6.25;;;1.60;;
56469;SDS011;42374;51.464;-2.590;2022-08-21T06:06:55;12.95;;;2.35;;
56469;SDS011;42374;51.464;-2.590;2022-08-21T06:09:21;7.93;;;1.60;;
56469;SDS011;42374;51.464;-2.590;2022-08-21T06:11:47;7.47;;;1.40;;
56469;SDS011;42374;51.464;-2.590;2022-08-21T06:14:14;11.45;;;1.70;;
56469;SDS011;42374;51.464;-2.590;2022-08-21T06:16:41;9.10;;;1.88;;
56469;SDS011;42374;51.464;-2.590;2022-08-21T06:19:07;5.78;;;1.40;;
56469;SDS011;42374;51.464;-2.590;2022-08-21T06:21:33;11.05;;;1.17;;
56469;SDS011;42374;51.464;-2.590;2022-08-21T06:23:59;11.18;;;1.55;;
56469;SDS011;42374;51.464;-2.590;2022-08-21T06:26:26;9.82;;;1.27;;
56469;SDS011;42374;51.464;-2.590;2022-08-21T06:28:54;13.07;;;2.17;;
56469;SDS011;42374;51.464;-2.590;2022-08-21T06:31:21;8.30;;;1.38;;
56469;SDS011;42374;51.464;-2.590;2022-08-21T06:33:47;8.77;;;1.77;;
56469;SDS011;42374;51.464;-2.590;2022-08-21T06:36:14;21.55;;;2.17;;
56469;SDS011;42374;51.464;-2.590;2022-08-21T06:38:40;12.57;;;1.60;;
56469;SDS011;42374;51.464;-2.590;2022-08-21T06:41:06;12.77;;;1.45;;
56469;SDS011;42374;51.464;-2.590;2022-08-21T06:43:33;13.98;;;1.50;;
56469;SDS011;42374;51.464;-2.590;2022-08-21T06:45:59;11.25;;;1.30;;
56469;SDS011;42374;51.464;-2.590;2022-08-21T06:48:25;19.35;;;2.00;;
56469;SDS011;42374;51.464;-2.590;2022-08-21T06:50:51;7.97;;;1.15;;
56469;SDS011;42374;51.464;-2.590;2022-08-21T06:53:18;7.40;;;1.20;;
56469;SDS011;42374;51.464;-2.590;2022-08-21T06:55:46;7.68;;;1.10;;
56469;SDS011;42374;51.464;-2.590;2022-08-21T06:58:12;7.40;;;1.38;;
56469;SDS011;42374;51.464;-2.590;2022-08-21T07:00:39;18.38;;;1.33;;
56469;SDS011;42374;51.464;-2.590;2022-08-21T07:03:05;6.85;;;1.02;;
56469;SDS011;42374;51.464;-2.590;2022-08-21T07:05:31;13.05;;;1.20;;
56469;SDS011;42374;51.464;-2.590;2022-08-21T07:07:58;10.05;;;1.20;;
56469;SDS011;42374;51.464;-2.590;2022-08-21T07:10:24;10.93;;;0.93;;
56469;SDS011;42374;51.464;-2.590;2022-08-21T07:12:50;6.97;;;1.10;;
56469;SDS011;42374;51.464;-2.590;2022-08-21T07:15:17;8.65;;;1.10;;
56469;SDS011;42374;51.464;-2.590;2022-08-21T07:17:43;5.32;;;1.00;;
56469;SDS011;42374;51.464;-2.590;2022-08-21T07:20:09;7.43;;;0.93;;
56469;SDS011;42374;51.464;-2.590;2022-08-21T07:22:36;9.65;;;1.10;;
56469;SDS011;42374;51.464;-2.590;2022-08-21T07:25:03;6.07;;;1.00;;
56469;SDS011;42374;51.464;-2.590;2022-08-21T07:27:29;3.53;;;0.93;;
56469;SDS011;42374;51.464;-2.590;2022-08-21T07:29:56;4.32;;;0.93;;
56469;SDS011;42374;51.464;-2.590;2022-08-21T07:32:22;6.70;;;1.38;;
56469;SDS011;42374;51.464;-2.590;2022-08-21T07:34:48;3.83;;;0.93;;
56469;SDS011;42374;51.464;-2.590;2022-08-21T07:37:14;6.47;;;1.23;;
56469;SDS011;42374;51.464;-2.590;2022-08-21T07:39:40;8.23;;;1.23;;
56469;SDS011;42374;51.464;-2.590;2022-08-21T07:42:07;12.02;;;1.30;;
56469;SDS011;42374;51.464;-2.590;2022-08-21T07:44:33;8.75;;;0.85;;
56469;SDS011;42374;51.464;-2.590;2022-08-21T07:46:59;6.38;;;1.50;;
56469;SDS011;42374;51.464;-2.590;2022-08-21T07:49:26;8.05;;;1.33;;
56469;SDS011;42374;51.464;-2.590;2022-08-21T07:51:52;10.13;;;1.58;;
56469;SDS011;42374;51.464;-2.590;2022-08-21T07:54:18;6.85;;;1.15;;
56469;SDS011;42374;51.464;-2.590;2022-08-21T07:56:44;7.90;;;3.42;;
56469;SDS011;42374;51.464;-2.590;2022-08-21T07:59:10;8.30;;;1.92;;
56469;SDS011;42374;51.464;-2.590;2022-08-21T08:01:37;12.65;;;3.45;;
56469;SDS011;42374;51.464;-2.590;2022-08-21T08:04:03;6.05;;;1.05;;
56469;SDS011;42374;51.464;-2.590;2022-08-21T08:06:29;9.07;;;1.00;;
56469;SDS011;42374;51.464;-2.590;2022-08-21T08:08:55;8.45;;;1.30;;
56469;SDS011;42374;51.464;-2.590;2022-08-21T08:11:21;3.00;;;0.90;;
56469;SDS011;42374;51.464;-2.590;2022-08-21T08:13:48;5.30;;;1.10;;
56469;SDS011;42374;51.464;-2.590;2022-08-21T08:16:15;7.53;;;1.00;;
56469;SDS011;42374;51.464;-2.590;2022-08-21T08:18:41;6.32;;;1.33;;
56469;SDS011;42374;51.464;-2.590;2022-08-21T08:21:09;6.18;;;1.10;;
56469;SDS011;42374;51.464;-2.590;2022-08-21T08:23:36;7.70;;;1.00;;
56469;SDS011;42374;51.464;-2.590;2022-08-21T08:26:03;9.10;;;1.75;;
56469;SDS011;42374;51.464;-2.590;2022-08-21T08:28:29;10.15;;;1.60;;
56469;SDS011;42374;51.464;-2.590;2022-08-21T08:30:56;5.47;;;1.17;;
56469;SDS011;42374;51.464;-2.590;2022-08-21T08:33:23;7.15;;;1.00;;
56469;SDS011;42374;51.464;-2.590;2022-08-21T08:35:49;9.48;;;1.00;;
56469;SDS011;42374;51.464;-2.590;2022-08-21T08:38:17;5.18;;;1.20;;
56469;SDS011;42374;51.464;-2.590;2022-08-21T08:43:30;8.27;;;1.30;;
56469;SDS011;42374;51.464;-2.590;2022-08-21T08:45:58;4.70;;;0.90;;
56469;SDS011;42374;51.464;-2.590;2022-08-21T08:48:31;5.93;;;1.08;;
56469;SDS011;42374;51.464;-2.590;2022-08-21T08:51:00;4.38;;;0.90;;
56469;SDS011;42374;51.464;-2.590;2022-08-21T08:53:28;8.63;;;1.30;;
56469;SDS011;42374;51.464;-2.590;2022-08-21T08:55:55;11.38;;;1.50;;
56469;SDS011;42374;51.464;-2.590;2022-08-21T09:00:50;6.22;;;1.10;;
56469;SDS011;42374;51.464;-2.590;2022-08-21T09:03:16;7.13;;;0.88;;
56469;SDS011;42374;51.464;-2.590;2022-08-21T09:11:04;7.95;;;1.50;;
56469;SDS011;42374;51.464;-2.590;2022-08-21T09:24:00;6.82;;;1.10;;
56469;SDS011;42374;51.464;-2.590;2022-08-21T09:26:30;7.45;;;1.00;;
56469;SDS011;42374;51.464;-2.590;2022-08-21T09:28:59;6.70;;;0.80;;
56469;SDS011;42374;51.464;-2.590;2022-08-21T09:31:35;6.18;;;0.93;;
56469;SDS011;42374;51.464;-2.590;2022-08-21T09:34:06;10.02;;;1.40;;
56469;SDS011;42374;51.464;-2.590;2022-08-21T09:39:02;6.32;;;1.15;;
56469;SDS011;42374;51.464;-2.590;2022-08-21T09:41:29;3.95;;;0.93;;
56469;SDS011;42374;51.464;-2.590;2022-08-21T09:43:56;8.32;;;1.10;;
56469;SDS011;42374;51.464;-2.590;2022-08-21T09:46:23;5.18;;;1.15;;
56469;SDS011;42374;51.464;-2.590;2022-08-21T09:48:51;3.35;;;0.90;;
56469;SDS011;42374;51.464;-2.590;2022-08-21T09:51:24;7.38;;;1.27;;
56469;SDS011;42374;51.464;-2.590;2022-08-21T09:53:53;7.75;;;1.10;;
56469;SDS011;42374;51.464;-2.590;2022-08-21T09:56:21;5.68;;;1.05;;
56469;SDS011;42374;51.464;-2.590;2022-08-21T09:59:27;3.55;;;0.90;;
56469;SDS011;42374;51.464;-2.590;2022-08-21T10:01:55;6.22;;;1.10;;
56469;SDS011;42374;51.464;-2.590;2022-08-21T10:04:32;6.25;;;0.80;;
56469;SDS011;42374;51.464;-2.590;2022-08-21T10:07:12;4.55;;;0.90;;
56469;SDS011;42374;51.464;-2.590;2022-08-21T10:09:39;2.63;;;0.70;;
56469;SDS011;42374;51.464;-2.590;2022-08-21T10:17:32;4.38;;;0.88;;
56469;SDS011;42374;51.464;-2.590;2022-08-21T10:20:44;5.28;;;1.00;;
56469;SDS011;42374;51.464;-2.590;2022-08-21T10:25:34;3.22;;;0.88;;
56469;SDS011;42374;51.464;-2.590;2022-08-21T10:33:02;8.23;;;1.13;;
56469;SDS011;42374;51.464;-2.590;2022-08-21T10:35:33;3.33;;;0.65;;
56469;SDS011;42374;51.464;-2.590;2022-08-21T10:48:19;5.75;;;1.00;;
56469;SDS011;42374;51.464;-2.590;2022-08-21T10:50:51;5.28;;;1.00;;
56469;SDS011;42374;51.464;-2.590;2022-08-21T10:58:31;4.55;;;0.90;;
56469;SDS011;42374;51.464;-2.590;2022-08-21T11:00:59;3.25;;;1.00;;
56469;SDS011;42374;51.464;-2.590;2022-08-21T11:03:39;5.13;;;0.93;;
56469;SDS011;42374;51.464;-2.590;2022-08-21T11:08:55;4.78;;;1.08;;
56469;SDS011;42374;51.464;-2.590;2022-08-21T11:16:31;7.60;;;1.17;;
56469;SDS011;42374;51.464;-2.590;2022-08-21T11:26:34;3.17;;;0.90;;
56469;SDS011;42374;51.464;-2.590;2022-08-21T11:29:04;4.70;;;1.00;;
56469;SDS011;42374;51.464;-2.590;2022-08-21T11:34:30;4.05;;;1.02;;
56469;SDS011;42374;51.464;-2.590;2022-08-21T11:37:26;3.92;;;1.00;;
56469;SDS011;42374;51.464;-2.590;2022-08-21T11:40:05;2.90;;;0.80;;
56469;SDS011;42374;51.464;-2.590;2022-08-21T11:45:22;2.58;;;0.60;;
56469;SDS011;42374;51.464;-2.590;2022-08-21T11:47:56;3.72;;;0.90;;
56469;SDS011;42374;51.464;-2.590;2022-08-21T11:50:26;4.15;;;0.85;;
56469;SDS011;42374;51.464;-2.590;2022-08-21T11:53:00;3.13;;;1.02;;
56469;SDS011;42374;51.464;-2.590;2022-08-21T11:55:39;12.07;;;1.85;;
56469;SDS011;42374;51.464;-2.590;2022-08-21T12:00:45;6.63;;;0.70;;
56469;SDS011;42374;51.464;-2.590;2022-08-21T12:03:14;3.65;;;1.00;;
56469;SDS011;42374;51.464;-2.590;2022-08-21T12:05:46;4.00;;;1.00;;
56469;SDS011;42374;51.464;-2.590;2022-08-21T12:11:01;4.82;;;0.95;;
56469;SDS011;42374;51.464;-2.590;2022-08-21T12:13:29;3.40;;;1.10;;
56469;SDS011;42374;51.464;-2.590;2022-08-21T12:16:06;7.43;;;0.93;;
56469;SDS011;42374;51.464;-2.590;2022-08-21T12:18:32;6.97;;;0.90;;
56469;SDS011;42374;51.464;-2.590;2022-08-21T12:21:00;4.30;;;0.98;;
56469;SDS011;42374;51.464;-2.590;2022-08-21T12:23:28;4.90;;;0.98;;
56469;SDS011;42374;51.464;-2.590;2022-08-21T12:26:31;4.57;;;1.10;;
56469;SDS011;42374;51.464;-2.590;2022-08-21T12:28:49;6.57;;;1.20;;
56469;SDS011;42374;51.464;-2.590;2022-08-21T12:31:23;8.60;;;0.90;;
56469;SDS011;42374;51.464;-2.590;2022-08-21T12:33:51;9.00;;;1.05;;
56469;SDS011;42374;51.464;-2.590;2022-08-21T12:36:18;4.57;;;0.80;;
56469;SDS011;42374;51.464;-2.590;2022-08-21T12:38:56;5.32;;;0.90;;
56469;SDS011;42374;51.464;-2.590;2022-08-21T12:41:30;4.82;;;0.80;;
56469;SDS011;42374;51.464;-2.590;2022-08-21T12:46:29;6.30;;;1.10;;
56469;SDS011;42374;51.464;-2.590;2022-08-21T12:48:58;5.40;;;1.20;;
56469;SDS011;42374;51.464;-2.590;2022-08-21T12:51:26;6.85;;;1.20;;
56469;SDS011;42374;51.464;-2.590;2022-08-21T12:53:55;3.00;;;0.77;;
56469;SDS011;42374;51.464;-2.590;2022-08-21T12:56:25;8.55;;;0.80;;
56469;SDS011;42374;51.464;-2.590;2022-08-21T12:58:54;5.05;;;0.80;;
56469;SDS011;42374;51.464;-2.590;2022-08-21T13:03:48;3.45;;;1.08;;
56469;SDS011;42374;51.464;-2.590;2022-08-21T13:06:16;3.10;;;0.80;;
56469;SDS011;42374;51.464;-2.590;2022-08-21T13:08:44;3.20;;;0.73;;
56469;SDS011;42374;51.464;-2.590;2022-08-21T13:11:10;5.00;;;1.10;;
56469;SDS011;42374;51.464;-2.590;2022-08-21T13:13:39;5.35;;;1.08;;
56469;SDS011;42374;51.464;-2.590;2022-08-21T13:16:06;6.00;;;0.98;;
56469;SDS011;42374;51.464;-2.590;2022-08-21T13:18:33;5.40;;;1.00;;
56469;SDS011;42374;51.464;-2.590;2022-08-21T13:21:04;4.65;;;0.90;;
56469;SDS011;42374;51.464;-2.590;2022-08-21T13:23:30;4.45;;;1.00;;
56469;SDS011;42374;51.464;-2.590;2022-08-21T13:25:57;2.60;;;0.70;;
56469;SDS011;42374;51.464;-2.590;2022-08-21T13:28:24;4.38;;;1.08;;
56469;SDS011;42374;51.464;-2.590;2022-08-21T13:30:58;3.88;;;0.95;;
56469;SDS011;42374;51.464;-2.590;2022-08-21T13:33:26;4.53;;;0.90;;
56469;SDS011;42374;51.464;-2.590;2022-08-21T13:38:22;5.70;;;1.13;;
56469;SDS011;42374;51.464;-2.590;2022-08-21T13:41:15;4.40;;;0.70;;
56469;SDS011;42374;51.464;-2.590;2022-08-21T13:43:36;5.38;;;0.80;;
56469;SDS011;42374;51.464;-2.590;2022-08-21T13:46:06;4.03;;;1.00;;
56469;SDS011;42374;51.464;-2.590;2022-08-21T13:48:33;4.72;;;0.93;;
56469;SDS011;42374;51.464;-2.590;2022-08-21T13:50:59;2.00;;;0.68;;
56469;SDS011;42374;51.464;-2.590;2022-08-21T13:56:00;2.78;;;0.90;;
56469;SDS011;42374;51.464;-2.590;2022-08-21T13:58:28;5.03;;;1.00;;
56469;SDS011;42374;51.464;-2.590;2022-08-21T14:00:55;7.18;;;0.90;;
56469;SDS011;42374;51.464;-2.590;2022-08-21T14:03:32;6.55;;;0.90;;
56469;SDS011;42374;51.464;-2.590;2022-08-21T14:06:00;3.47;;;1.10;;
56469;SDS011;42374;51.464;-2.590;2022-08-21T14:08:31;6.50;;;0.70;;
56469;SDS011;42374;51.464;-2.590;2022-08-21T14:10:58;3.60;;;0.80;;
56469;SDS011;42374;51.464;-2.590;2022-08-21T14:16:46;2.85;;;0.77;;
56469;SDS011;42374;51.464;-2.590;2022-08-21T14:19:20;5.97;;;1.10;;
56469;SDS011;42374;51.464;-2.590;2022-08-21T14:21:46;4.57;;;0.90;;
56469;SDS011;42374;51.464;-2.590;2022-08-21T14:24:13;3.40;;;0.95;;
56469;SDS011;42374;51.464;-2.590;2022-08-21T14:26:44;3.55;;;0.93;;
56469;SDS011;42374;51.464;-2.590;2022-08-21T14:29:11;3.83;;;0.90;;
56469;SDS011;42374;51.464;-2.590;2022-08-21T14:31:42;3.70;;;0.80;;
56469;SDS011;42374;51.464;-2.590;2022-08-21T14:34:09;3.13;;;1.00;;
56469;SDS011;42374;51.464;-2.590;2022-08-21T14:36:36;4.40;;;1.10;;
56469;SDS011;42374;51.464;-2.590;2022-08-21T14:39:02;3.47;;;1.00;;
56469;SDS011;42374;51.464;-2.590;2022-08-21T14:41:29;6.53;;;1.20;;
56469;SDS011;42374;51.464;-2.590;2022-08-21T14:43:56;4.07;;;1.17;;
56469;SDS011;42374;51.464;-2.590;2022-08-21T14:46:26;4.50;;;0.80;;
56469;SDS011;42374;51.464;-2.590;2022-08-21T14:48:52;5.28;;;1.00;;
56469;SDS011;42374;51.464;-2.590;2022-08-21T14:51:19;6.10;;;0.85;;
56469;SDS011;42374;51.464;-2.590;2022-08-21T14:53:45;7.82;;;1.10;;
56469;SDS011;42374;51.464;-2.590;2022-08-21T14:56:11;6.47;;;1.15;;
56469;SDS011;42374;51.464;-2.590;2022-08-21T14:58:39;4.55;;;0.80;;
56469;SDS011;42374;51.464;-2.590;2022-08-21T15:01:06;2.85;;;0.88;;
56469;SDS011;42374;51.464;-2.590;2022-08-21T15:03:33;6.90;;;1.10;;
56469;SDS011;42374;51.464;-2.590;2022-08-21T15:06:00;7.25;;;1.00;;
56469;SDS011;42374;51.464;-2.590;2022-08-21T15:08:26;5.45;;;0.93;;
56469;SDS011;42374;51.464;-2.590;2022-08-21T15:10:53;6.38;;;1.00;;
56469;SDS011;42374;51.464;-2.590;2022-08-21T15:13:19;5.97;;;1.02;;
56469;SDS011;42374;51.464;-2.590;2022-08-21T15:15:47;4.68;;;0.93;;
56469;SDS011;42374;51.464;-2.590;2022-08-21T15:18:14;3.95;;;1.00;;
56469;SDS011;42374;51.464;-2.590;2022-08-21T15:20:41;3.10;;;0.70;;
56469;SDS011;42374;51.464;-2.590;2022-08-21T15:23:08;6.35;;;1.27;;
56469;SDS011;42374;51.464;-2.590;2022-08-21T15:25:34;5.95;;;1.00;;
56469;SDS011;42374;51.464;-2.590;2022-08-21T15:28:01;3.10;;;0.88;;
56469;SDS011;42374;51.464;-2.590;2022-08-21T15:30:36;2.88;;;1.05;;
56469;SDS011;42374;51.464;-2.590;2022-08-21T15:33:02;2.80;;;0.70;;
56469;SDS011;42374;51.464;-2.590;2022-08-21T15:35:28;5.97;;;1.20;;
56469;SDS011;42374;51.464;-2.590;2022-08-21T15:37:54;3.47;;;0.90;;
56469;SDS011;42374;51.464;-2.590;2022-08-21T15:40:21;8.85;;;0.90;;
56469;SDS011;42374;51.464;-2.590;2022-08-21T15:42:47;3.92;;;0.85;;
56469;SDS011;42374;51.464;-2.590;2022-08-21T15:45:17;8.98;;;1.10;;
56469;SDS011;42374;51.464;-2.590;2022-08-21T15:47:43;3.05;;;1.25;;
56469;SDS011;42374;51.464;-2.590;2022-08-21T15:50:10;5.03;;;1.17;;
56469;SDS011;42374;51.464;-2.590;2022-08-21T15:52:36;7.05;;;1.20;;
56469;SDS011;42374;51.464;-2.590;2022-08-21T15:55:03;5.72;;;0.98;;
56469;SDS011;42374;51.464;-2.590;2022-08-21T15:57:30;3.90;;;0.82;;
56469;SDS011;42374;51.464;-2.590;2022-08-21T15:59:57;4.43;;;0.80;;
56469;SDS011;42374;51.464;-2.590;2022-08-21T16:02:30;7.37;;;0.90;;
56469;SDS011;42374;51.464;-2.590;2022-08-21T16:04:56;4.82;;;0.85;;